createdAt,value
2023-04-18T00:01:28.946Z,80.67
2023-04-18T00:03:22.063Z,80.80
2023-04-18T00:05:13.825Z,80.78
2023-04-18T00:07:06.698Z,80.59
2023-04-18T00:08:58.444Z,80.67
2023-04-18T00:10:49.877Z,80.80
2023-04-18T00:12:41.292Z,80.88
2023-04-18T00:14:34.723Z,80.90
2023-04-18T00:16:28.387Z,80.88
2023-04-18T00:18:20.082Z,80.80
2023-04-18T00:20:13.138Z,80.70
2023-04-18T00:22:04.800Z,80.61
2023-04-18T00:23:56.336Z,80.58
2023-04-18T00:25:50.721Z,80.64
2023-04-18T00:27:42.278Z,80.66
2023-04-18T00:29:34.104Z,80.79
2023-04-18T00:31:26.176Z,81.06
2023-04-18T00:33:17.900Z,80.85
2023-04-18T00:35:09.703Z,80.78
2023-04-18T00:37:01.758Z,80.71
2023-04-18T00:38:53.150Z,80.67
2023-04-18T00:40:44.775Z,80.69
2023-04-18T00:42:36.672Z,80.83
2023-04-18T00:44:28.429Z,80.95
2023-04-18T00:46:20.248Z,80.88
2023-04-18T00:48:12.112Z,81.01
2023-04-18T00:50:04.392Z,80.98
2023-04-18T00:51:56.185Z,80.95
2023-04-18T00:53:48.010Z,81.02
2023-04-18T00:55:40.738Z,81.18
2023-04-18T00:57:32.599Z,81.20
2023-04-18T00:59:24.398Z,81.05
2023-04-18T01:01:16.250Z,81.17
2023-04-18T01:03:08.688Z,81.22
2023-04-18T01:05:00.517Z,81.28
2023-04-18T01:06:52.323Z,81.40
2023-04-18T01:08:45.085Z,81.48
2023-04-18T01:10:37.472Z,81.27
2023-04-18T01:12:29.074Z,81.39
2023-04-18T01:14:21.041Z,81.40
2023-04-18T01:16:12.356Z,81.56
2023-04-18T01:18:04.081Z,81.45
2023-04-18T01:19:56.805Z,81.60
2023-04-18T01:21:48.593Z,81.62
2023-04-18T01:23:40.450Z,81.63
2023-04-18T01:25:33.358Z,81.91
2023-04-18T01:27:25.396Z,81.67
2023-04-18T01:29:17.319Z,81.71
2023-04-18T01:31:08.926Z,81.66
2023-04-18T01:33:02.367Z,82.01
2023-04-18T01:34:53.957Z,81.88
2023-04-18T01:36:46.425Z,81.95
2023-04-18T01:38:37.971Z,81.90
2023-04-18T01:40:30.332Z,81.93
2023-04-18T01:42:22.221Z,81.91
2023-04-18T01:44:13.897Z,81.93
2023-04-18T01:46:05.913Z,81.81
2023-04-18T01:47:57.733Z,81.96
2023-04-18T01:49:49.688Z,81.89
2023-04-18T01:51:43.188Z,81.93
2023-04-18T01:53:34.821Z,81.83
2023-04-18T01:55:26.661Z,81.86
2023-04-18T01:57:18.398Z,81.90
2023-04-18T01:59:09.654Z,81.71
2023-04-18T02:01:01.605Z,81.87
2023-04-18T02:02:53.700Z,81.95
2023-04-18T02:04:45.481Z,81.96
2023-04-18T02:06:37.419Z,81.97
2023-04-18T02:08:30.926Z,82.03
2023-04-18T02:10:22.816Z,82.02
2023-04-18T02:12:14.605Z,82.02
2023-04-18T02:14:06.796Z,82.10
2023-04-18T02:15:58.468Z,82.11
2023-04-18T02:17:50.684Z,82.08
2023-04-18T02:19:42.982Z,82.03
2023-04-18T02:21:34.825Z,82.16
2023-04-18T02:23:26.126Z,82.22
2023-04-18T02:25:18.736Z,82.17
2023-04-18T02:27:11.203Z,82.11
2023-04-18T02:29:03.124Z,82.22
2023-04-18T02:30:54.844Z,82.31
2023-04-18T02:32:47.166Z,82.21
2023-04-18T02:34:39.568Z,82.28
2023-04-18T02:36:31.081Z,82.07
2023-04-18T02:38:22.892Z,82.12
2023-04-18T02:40:14.892Z,82.01
2023-04-18T02:42:06.580Z,82.04
2023-04-18T02:43:59.164Z,82.07
2023-04-18T02:45:50.949Z,82.00
2023-04-18T02:47:51.728Z,81.98
2023-04-18T02:49:46.785Z,81.98
2023-04-18T02:51:38.665Z,81.89
2023-04-18T02:53:30.663Z,82.01
2023-04-18T02:55:22.684Z,81.80
2023-04-18T02:57:14.740Z,81.63
2023-04-18T02:59:07.248Z,81.55
2023-04-18T03:00:59.103Z,81.52
2023-04-18T03:02:50.941Z,81.52
2023-04-18T03:04:42.790Z,81.44
2023-04-18T03:06:34.574Z,81.36
2023-04-18T03:08:26.441Z,81.15
2023-04-18T03:10:18.355Z,81.06
2023-04-18T03:12:09.799Z,81.19
2023-04-18T03:14:01.442Z,81.22
2023-04-18T03:15:53.105Z,80.97
2023-04-18T03:17:44.584Z,81.05
2023-04-18T03:19:36.446Z,80.89
2023-04-18T03:21:28.125Z,80.85
2023-04-18T03:23:19.565Z,80.84
2023-04-18T03:25:11.446Z,80.65
2023-04-18T03:27:03.164Z,80.66
2023-04-18T03:28:54.879Z,80.57
2023-04-18T03:30:46.700Z,80.62
2023-04-18T03:32:38.697Z,80.55
2023-04-18T03:34:30.588Z,80.67
2023-04-18T03:36:25.449Z,80.58
2023-04-18T03:38:17.121Z,80.79
2023-04-18T03:40:09.296Z,80.72
2023-04-18T03:42:02.146Z,80.66
2023-04-18T03:43:53.713Z,80.73
2023-04-18T03:45:47.443Z,80.70
2023-04-18T03:47:39.272Z,80.69
2023-04-18T03:49:31.054Z,80.62
2023-04-18T03:51:22.941Z,80.69
2023-04-18T03:53:15.040Z,80.63
2023-04-18T03:55:07.084Z,80.56
2023-04-18T03:56:59.729Z,80.61
2023-04-18T03:58:51.650Z,80.70
2023-04-18T04:00:43.271Z,80.70
2023-04-18T04:02:34.724Z,80.94
2023-04-18T04:04:26.613Z,80.87
2023-04-18T04:06:18.732Z,80.83
2023-04-18T04:08:10.240Z,80.86
2023-04-18T04:10:01.683Z,80.92
2023-04-18T04:11:53.497Z,80.89
2023-04-18T04:13:44.902Z,80.88
2023-04-18T04:15:38.514Z,80.79
2023-04-18T04:17:30.160Z,80.77
2023-04-18T04:19:22.061Z,80.97
2023-04-18T04:21:13.371Z,80.93
2023-04-18T04:23:06.294Z,80.90
2023-04-18T04:24:57.874Z,80.85
2023-04-18T04:26:53.125Z,80.73
2023-04-18T04:28:46.743Z,80.77
2023-04-18T04:30:41.731Z,80.82
2023-04-18T04:32:33.320Z,80.88
2023-04-18T04:34:24.751Z,81.09
2023-04-18T04:36:18.835Z,80.96
2023-04-18T04:38:12.781Z,80.94
2023-04-18T04:40:06.233Z,81.05
2023-04-18T04:41:58.024Z,81.03
2023-04-18T04:43:51.315Z,81.18
2023-04-18T04:45:43.719Z,81.31
2023-04-18T04:47:36.565Z,81.34
2023-04-18T04:49:28.495Z,81.30
2023-04-18T04:51:20.926Z,81.40
2023-04-18T04:53:12.652Z,81.29
2023-04-18T04:57:12.948Z,81.38
2023-04-18T04:59:04.249Z,81.57
2023-04-18T05:00:55.729Z,81.55
2023-04-18T05:02:53.522Z,81.64
2023-04-18T05:04:45.069Z,81.62
2023-04-18T05:06:37.924Z,81.57
2023-04-18T05:08:31.063Z,81.74
2023-04-18T05:10:23.313Z,81.67
2023-04-18T05:12:14.791Z,81.60
2023-04-18T05:14:06.133Z,81.50
2023-04-18T05:15:59.548Z,81.39
2023-04-18T05:17:51.026Z,81.52
2023-04-18T05:19:48.423Z,81.40
2023-04-18T05:21:39.963Z,81.47
2023-04-18T05:23:33.082Z,81.51
2023-04-18T05:25:24.560Z,81.48
2023-04-18T05:27:17.998Z,81.40
2023-04-18T05:29:10.025Z,81.27
2023-04-18T05:31:04.008Z,81.52
2023-04-18T05:32:55.627Z,81.45
2023-04-18T05:34:48.450Z,81.63
2023-04-18T05:36:40.568Z,81.54
2023-04-18T05:38:32.030Z,81.56
2023-04-18T05:40:23.432Z,81.44
2023-04-18T05:42:14.746Z,81.74
2023-04-18T05:44:06.583Z,81.69
2023-04-18T05:45:58.190Z,81.80
2023-04-18T05:47:49.724Z,81.83
2023-04-18T05:49:41.201Z,81.79
2023-04-18T05:51:32.793Z,81.92
2023-04-18T05:53:23.981Z,81.94
2023-04-18T05:55:15.706Z,82.00
2023-04-18T05:57:07.135Z,81.80
2023-04-18T05:58:58.786Z,81.68
2023-04-18T06:00:50.164Z,81.90
2023-04-18T06:02:42.061Z,81.99
2023-04-18T06:04:34.258Z,81.71
2023-04-18T06:06:26.198Z,81.72
2023-04-18T06:08:17.860Z,81.53
2023-04-18T06:10:13.451Z,81.68
2023-04-18T06:12:05.636Z,81.60
2023-04-18T06:13:57.498Z,81.43
2023-04-18T06:15:49.416Z,81.64
2023-04-18T06:17:41.329Z,81.70
2023-04-18T06:19:33.294Z,81.45
2023-04-18T06:21:25.940Z,81.69
2023-04-18T06:23:17.315Z,81.65
2023-04-18T06:25:10.063Z,81.48
2023-04-18T06:27:02.018Z,81.51
2023-04-18T06:28:53.843Z,81.50
2023-04-18T06:30:45.261Z,81.41
2023-04-18T06:32:37.075Z,81.14
2023-04-18T06:34:28.873Z,80.93
2023-04-18T06:36:21.349Z,81.23
2023-04-18T06:38:13.213Z,81.29
2023-04-18T06:40:05.818Z,81.31
2023-04-18T06:41:58.046Z,81.58
2023-04-18T06:44:02.728Z,81.21
2023-04-18T06:45:56.805Z,81.17
2023-04-18T06:47:48.960Z,81.21
2023-04-18T06:49:41.499Z,81.42
2023-04-18T06:51:34.248Z,81.59
2023-04-18T06:53:26.051Z,81.52
2023-04-18T06:55:17.833Z,81.57
2023-04-18T06:57:09.388Z,81.27
2023-04-18T06:59:00.758Z,81.13
2023-04-18T07:00:53.100Z,81.37
2023-04-18T07:02:45.031Z,81.09
2023-04-18T07:04:36.641Z,80.99
2023-04-18T07:06:28.181Z,81.31
2023-04-18T07:08:20.070Z,81.21
2023-04-18T07:10:12.057Z,81.19
2023-04-18T07:12:03.493Z,81.00
2023-04-18T07:13:55.280Z,80.87
2023-04-18T07:15:46.555Z,80.73
2023-04-18T07:17:38.468Z,81.00
2023-04-18T07:19:30.115Z,80.90
2023-04-18T07:21:21.633Z,81.20
2023-04-18T07:23:13.383Z,81.19
2023-04-18T07:25:05.215Z,80.97
2023-04-18T07:26:56.826Z,81.04
2023-04-18T07:28:49.310Z,80.88
2023-04-18T07:30:41.283Z,80.87
2023-04-18T07:32:33.247Z,80.50
2023-04-18T07:34:27.190Z,80.43
2023-04-18T07:36:18.654Z,80.44
2023-04-18T07:38:11.790Z,80.49
2023-04-18T07:40:04.495Z,80.49
2023-04-18T07:41:56.217Z,80.43
2023-04-18T07:43:47.736Z,80.36
2023-04-18T07:45:39.209Z,80.43
2023-04-18T07:47:32.254Z,80.24
2023-04-18T07:49:24.603Z,80.38
2023-04-18T07:51:16.003Z,80.68
2023-04-18T07:53:08.492Z,80.44
2023-04-18T07:55:00.136Z,79.97
2023-04-18T07:56:51.840Z,79.90
2023-04-18T07:58:43.166Z,79.80
2023-04-18T08:00:37.177Z,79.98
2023-04-18T08:02:29.287Z,80.27
2023-04-18T08:04:21.092Z,79.73
2023-04-18T08:06:12.710Z,79.55
2023-04-18T08:08:07.284Z,79.27
2023-04-18T08:09:58.899Z,79.09
2023-04-18T08:11:50.733Z,79.10
2023-04-18T08:13:42.699Z,79.26
2023-04-18T08:15:34.281Z,79.42
2023-04-18T08:17:26.092Z,79.97
2023-04-18T08:19:17.487Z,80.18
2023-04-18T08:21:08.867Z,79.46
2023-04-18T08:25:04.166Z,80.24
2023-04-18T08:26:57.630Z,79.88
2023-04-18T08:28:49.243Z,79.45
2023-04-18T08:30:42.402Z,79.67
2023-04-18T08:32:36.208Z,79.47
2023-04-18T08:34:29.304Z,79.46
2023-04-18T08:36:21.525Z,79.10
2023-04-18T08:38:13.603Z,78.65
2023-04-18T08:40:07.379Z,78.67
2023-04-18T08:42:00.124Z,78.77
2023-04-18T08:43:51.694Z,78.28
2023-04-18T08:45:43.743Z,77.96
2023-04-18T08:47:35.651Z,78.13
2023-04-18T08:49:28.457Z,78.49
2023-04-18T08:51:19.960Z,77.73
2023-04-18T08:53:11.835Z,78.25
2023-04-18T08:55:03.913Z,78.35
2023-04-18T08:57:08.764Z,78.39
2023-04-18T08:59:00.241Z,78.46
2023-04-18T09:00:55.144Z,78.42
2023-04-18T09:02:47.235Z,78.11
2023-04-18T09:04:39.977Z,78.29
2023-04-18T09:06:33.531Z,78.24
2023-04-18T09:08:24.788Z,78.29
2023-04-18T09:10:36.622Z,78.45
2023-04-18T09:12:29.514Z,78.55
2023-04-18T09:14:25.962Z,78.76
2023-04-18T09:16:20.734Z,78.68
2023-04-18T09:18:12.367Z,78.42
2023-04-18T09:20:08.758Z,78.54
2023-04-18T09:22:02.360Z,78.45
2023-04-18T09:24:18.303Z,78.68
2023-04-18T09:26:10.421Z,78.25
2023-04-18T09:28:03.069Z,78.13
2023-04-18T09:29:56.515Z,78.05
2023-04-18T09:32:01.229Z,77.78
2023-04-18T09:33:54.617Z,77.18
2023-04-18T09:35:47.325Z,77.55
2023-04-18T09:37:39.099Z,77.83
2023-04-18T09:39:30.712Z,77.28
2023-04-18T09:41:23.426Z,77.10
2023-04-18T09:43:20.165Z,76.98
2023-04-18T09:45:13.181Z,77.03
2023-04-18T09:47:08.283Z,77.19
2023-04-18T09:49:00.058Z,77.37
2023-04-18T09:50:52.568Z,76.87
2023-04-18T09:52:45.798Z,76.64
2023-04-18T09:54:41.201Z,76.70
2023-04-18T09:56:35.324Z,76.61
2023-04-18T09:58:30.953Z,76.46
2023-04-18T10:00:24.893Z,75.79
2023-04-18T10:02:21.143Z,75.68
2023-04-18T10:04:14.666Z,75.73
2023-04-18T10:06:50.298Z,76.13
2023-04-18T10:08:43.437Z,75.72
2023-04-18T10:10:34.794Z,75.62
2023-04-18T10:12:26.581Z,76.04
2023-04-18T10:14:18.174Z,75.67
2023-04-18T10:16:11.204Z,74.89
2023-04-18T10:18:08.523Z,74.83
2023-04-18T10:20:16.816Z,74.78
2023-04-18T10:22:08.708Z,75.00
2023-04-18T10:24:00.402Z,75.50
2023-04-18T10:25:51.884Z,75.09
2023-04-18T10:27:49.563Z,74.20
2023-04-18T10:29:51.824Z,74.10
2023-04-18T10:31:48.024Z,73.77
2023-04-18T10:33:42.772Z,74.41
2023-04-18T10:35:36.071Z,74.94
2023-04-18T10:37:28.498Z,74.45
2023-04-18T10:39:25.195Z,74.05
2023-04-18T10:41:26.033Z,74.55
2023-04-18T10:43:17.587Z,74.93
2023-04-18T10:45:19.623Z,74.71
2023-04-18T10:47:16.984Z,74.80
2023-04-18T10:49:31.166Z,74.79
2023-04-18T11:00:38.930Z,74.04
2023-04-18T11:02:32.449Z,74.66
2023-04-18T11:04:25.671Z,74.84
2023-04-18T11:06:18.236Z,74.43
2023-04-18T11:08:30.759Z,74.58
2023-04-18T11:10:24.657Z,74.17
2023-04-18T11:12:16.336Z,74.06
2023-04-18T11:14:08.122Z,74.00
2023-04-18T11:16:00.004Z,74.28
2023-04-18T11:18:17.725Z,74.26
2023-04-18T11:20:14.765Z,74.46
2023-04-18T11:22:06.755Z,74.77
2023-04-18T11:24:05.929Z,74.69
2023-04-18T11:26:03.956Z,73.32
2023-04-18T11:28:01.724Z,73.26
2023-04-18T11:29:55.153Z,72.93
2023-04-18T11:31:54.584Z,73.09
2023-04-18T11:33:49.142Z,72.91
2023-04-18T11:35:42.704Z,73.24
2023-04-18T11:37:37.820Z,72.11
2023-04-18T11:39:29.886Z,72.18
2023-04-18T11:41:22.404Z,72.34
2023-04-18T11:43:19.337Z,72.08
2023-04-18T11:45:12.862Z,71.73
2023-04-18T11:47:04.614Z,71.55
2023-04-18T11:48:56.535Z,72.11
2023-04-18T11:50:48.477Z,72.00
2023-04-18T11:52:41.439Z,72.51
2023-04-18T11:54:38.877Z,72.39
2023-04-18T11:56:32.249Z,71.61
2023-04-18T11:58:32.066Z,71.79
2023-04-18T12:00:38.768Z,72.60
2023-04-18T12:02:48.824Z,72.59
2023-04-18T12:04:57.798Z,71.68
2023-04-18T12:06:52.157Z,72.22
2023-04-18T12:08:44.837Z,72.19
2023-04-18T12:10:38.393Z,72.26
2023-04-18T12:12:31.095Z,72.74
2023-04-18T12:14:35.807Z,72.93
2023-04-18T12:16:30.919Z,72.15
2023-04-18T12:18:24.811Z,72.14
2023-04-18T12:20:16.597Z,71.67
2023-04-18T12:22:09.835Z,72.29
2023-04-18T12:24:16.274Z,72.13
2023-04-18T12:26:14.435Z,71.55
2023-04-18T12:28:15.875Z,71.39
2023-04-18T12:30:10.062Z,71.37
2023-04-18T12:32:02.635Z,70.36
2023-04-18T12:33:55.428Z,71.68
2023-04-18T12:35:49.557Z,70.68
2023-04-18T12:37:42.088Z,70.23
2023-04-18T12:39:34.381Z,69.85
2023-04-18T12:41:26.285Z,70.45
2023-04-18T12:43:19.062Z,70.53
2023-04-18T12:45:12.554Z,70.32
2023-04-18T12:47:04.885Z,70.33
2023-04-18T12:48:57.317Z,70.69
2023-04-18T12:50:49.069Z,70.53
2023-04-18T12:52:40.872Z,70.67
2023-04-18T12:54:32.405Z,70.70
2023-04-18T12:56:23.951Z,68.94
2023-04-18T12:58:19.495Z,68.94
2023-04-18T13:00:14.963Z,68.97
2023-04-18T13:02:07.027Z,69.37
2023-04-18T13:04:10.933Z,69.22
2023-04-18T13:06:06.353Z,69.58
2023-04-18T13:08:15.082Z,70.30
2023-04-18T13:10:09.061Z,68.81
2023-04-18T13:12:02.287Z,68.44
2023-04-18T13:13:56.860Z,67.81
2023-04-18T13:15:48.580Z,66.68
2023-04-18T13:17:40.707Z,66.71
2023-04-18T13:19:32.655Z,65.73
2023-04-18T13:21:26.208Z,64.52
2023-04-18T13:23:17.829Z,63.93
2023-04-18T13:25:13.465Z,63.88
2023-04-18T13:27:10.697Z,62.86
2023-04-18T13:29:02.705Z,62.59
2023-04-18T13:30:54.361Z,63.40
2023-04-18T13:32:46.303Z,62.46
2023-04-18T13:34:41.844Z,62.20
2023-04-18T13:36:35.281Z,62.79
2023-04-18T13:38:28.192Z,63.04
2023-04-18T13:40:19.889Z,63.89
2023-04-18T13:42:13.533Z,63.83
2023-04-18T13:44:08.552Z,63.43
2023-04-18T13:46:00.543Z,63.65
2023-04-18T13:47:53.208Z,63.90
2023-04-18T13:49:45.255Z,63.90
2023-04-18T13:51:37.382Z,63.75
2023-04-18T13:53:31.093Z,64.05
2023-04-18T13:55:23.118Z,63.82
2023-04-18T13:57:15.176Z,63.63
2023-04-18T13:59:07.559Z,63.45
2023-04-18T14:00:59.366Z,64.03
2023-04-18T14:02:51.321Z,64.04
2023-04-18T14:04:43.304Z,65.17
2023-04-18T14:06:35.219Z,64.13
2023-04-18T14:08:27.033Z,63.32
2023-04-18T14:10:19.066Z,62.85
2023-04-18T14:12:11.081Z,62.71
2023-04-18T14:14:02.587Z,63.38
2023-04-18T14:15:54.506Z,62.75
2023-04-18T14:17:48.522Z,62.17
2023-04-18T14:19:39.985Z,62.17
2023-04-18T14:21:32.156Z,61.32
2023-04-18T14:23:23.709Z,61.59
2023-04-18T14:25:17.159Z,61.32
2023-04-18T14:27:09.018Z,61.16
2023-04-18T14:29:01.406Z,60.57
2023-04-18T14:30:55.551Z,61.43
2023-04-18T14:32:47.435Z,61.68
2023-04-18T14:34:39.448Z,61.14
2023-04-18T14:36:32.761Z,61.86
2023-04-18T14:38:24.668Z,62.53
2023-04-18T14:40:17.023Z,61.32
2023-04-18T14:42:08.547Z,61.63
2023-04-18T14:44:00.485Z,62.83
2023-04-18T14:45:52.261Z,60.36
2023-04-18T14:47:44.338Z,60.36
2023-04-18T14:49:35.837Z,60.22
2023-04-18T14:51:27.811Z,59.43
2023-04-18T14:53:19.527Z,60.93
2023-04-18T14:55:10.922Z,62.20
2023-04-18T14:57:02.601Z,61.67
2023-04-18T14:58:53.798Z,61.66
2023-04-18T15:00:45.486Z,62.32
2023-04-18T15:02:37.179Z,61.96
2023-04-18T15:04:28.983Z,61.50
2023-04-18T15:06:20.674Z,61.02
2023-04-18T15:08:26.326Z,61.76
2023-04-18T15:10:22.578Z,61.49
2023-04-18T15:12:16.008Z,60.69
2023-04-18T15:14:08.944Z,60.24
2023-04-18T15:16:01.591Z,60.33
2023-04-18T15:17:53.581Z,60.70
2023-04-18T15:19:45.453Z,60.88
2023-04-18T15:21:36.913Z,60.38
2023-04-18T15:23:28.922Z,60.65
2023-04-18T15:25:20.890Z,60.65
2023-04-18T15:27:12.385Z,59.95
2023-04-18T15:29:04.038Z,60.58
2023-04-18T15:30:55.799Z,59.86
2023-04-18T15:32:49.135Z,60.59
2023-04-18T15:34:41.252Z,59.27
2023-04-18T15:36:33.386Z,59.82
2023-04-18T15:38:25.444Z,60.62
2023-04-18T15:40:18.821Z,60.68
2023-04-18T15:42:10.680Z,61.56
2023-04-18T15:44:03.009Z,61.56
2023-04-18T15:45:54.620Z,61.74
2023-04-18T15:47:46.266Z,62.43
2023-04-18T15:49:37.991Z,63.09
2023-04-18T15:51:30.497Z,62.98
2023-04-18T15:53:22.223Z,63.32
2023-04-18T15:55:14.199Z,63.46
2023-04-18T15:57:05.810Z,63.14
2023-04-18T15:58:59.242Z,63.33
2023-04-18T16:00:51.486Z,63.53
2023-04-18T16:02:46.130Z,63.45
2023-04-18T16:04:38.203Z,63.95
2023-04-18T16:06:31.445Z,64.12
2023-04-18T16:08:26.272Z,64.40
2023-04-18T16:10:18.167Z,64.53
2023-04-18T16:12:10.030Z,64.36
2023-04-18T16:14:01.331Z,65.00
2023-04-18T16:15:53.145Z,64.91
2023-04-18T16:17:45.589Z,65.07
2023-04-18T16:19:41.071Z,65.38
2023-04-18T16:21:32.622Z,65.35
2023-04-18T16:23:25.656Z,65.78
2023-04-18T16:25:17.432Z,65.90
2023-04-18T16:27:09.145Z,66.04
2023-04-18T16:29:01.316Z,65.97
2023-04-18T16:30:55.370Z,66.51
2023-04-18T16:32:47.187Z,66.59
2023-04-18T16:34:38.852Z,66.58
2023-04-18T16:36:34.519Z,66.59
2023-04-18T16:38:27.333Z,66.92
2023-04-18T16:40:19.207Z,66.79
2023-04-18T16:42:11.658Z,66.99
2023-04-18T16:44:04.886Z,66.93
2023-04-18T16:45:57.648Z,67.12
2023-04-18T16:47:49.458Z,67.28
2023-04-18T16:49:43.560Z,67.12
2023-04-18T16:51:37.258Z,67.60
2023-04-18T16:53:29.020Z,67.84
2023-04-18T16:55:20.600Z,67.93
2023-04-18T16:57:12.671Z,68.06
2023-04-18T16:59:04.301Z,68.26
2023-04-18T17:00:55.919Z,68.63
2023-04-18T17:02:48.539Z,68.63
2023-04-18T17:04:40.225Z,68.89
2023-04-18T17:06:32.686Z,68.84
2023-04-18T17:08:25.941Z,68.86
2023-04-18T17:10:20.630Z,69.20
2023-04-18T17:12:12.182Z,69.41
2023-04-18T17:14:04.220Z,69.44
2023-04-18T17:15:56.464Z,69.52
2023-04-18T17:27:15.485Z,70.19
2023-04-18T17:29:07.116Z,70.05
2023-04-18T17:31:01.397Z,70.41
2023-04-18T17:32:53.511Z,70.48
2023-04-18T17:34:45.632Z,70.58
2023-04-18T17:36:37.126Z,70.52
2023-04-18T17:38:28.868Z,70.67
2023-04-18T17:40:20.484Z,70.90
2023-04-18T17:42:12.614Z,71.04
2023-04-18T17:44:05.437Z,71.03
2023-04-18T17:45:59.438Z,71.03
2023-04-18T17:47:51.409Z,71.29
